Time;durP1;ratioP1;P1;durP2;ratioP2;P2;SDS_P1;SDS_P2;PMS_P1;PMS_P2;Temp;Humidity;BMP_temperature;BMP_pressure;BME280_temperature;BME280_humidity;BME280_pressure;Samples;Min_cycle;Max_cycle;Signal;HPM_P1;HPM_P2
2023/05/11 00:04:57;;;;;;;;;;;;;;;20.97;46.89;95457.19;10245948;28;1872;-64
2023/05/11 00:09:58;;;;;;;;;;;;;;;20.97;46.87;95453.78;10237663;28;1931;-64
2023/05/11 00:14:58;;;;;;;;;;;;;;;20.96;47.00;95442.44;10235772;29;2118;-63
2023/05/11 00:19:58;;;;;;;;;;;;;;;20.95;46.63;95448.00;10242102;28;1816;-63
2023/05/11 00:24:58;;;;;;;;;;;;;;;20.96;46.83;95441.66;10247756;28;1525;-63
2023/05/11 00:29:59;;;;;;;;;;;;;;;20.93;46.72;95443.03;10242033;28;1838;-63
2023/05/11 00:34:59;;;;;;;;;;;;;;;20.93;46.84;95445.66;10244159;28;1966;-63
2023/05/11 00:39:59;;;;;;;;;;;;;;;20.93;46.29;95437.75;10239872;28;2160;-63
2023/05/11 00:44:59;;;;;;;;;;;;;;;20.92;46.36;95433.53;10234864;28;1949;-63
2023/05/11 00:50:00;;;;;;;;;;;;;;;20.92;46.51;95436.19;10240124;28;1949;-63
2023/05/11 00:55:00;;;;;;;;;;;;;;;20.91;46.59;95429.34;10237316;28;2047;-63
2023/05/11 01:00:01;;;;;;;;;;;;;;;20.91;46.56;95434.63;10234695;28;4390;-63
2023/05/11 01:05:01;;;;;;;;;;;;;;;20.91;46.71;95433.81;10236919;28;1934;-63
2023/05/11 01:10:12;;;;;;;;;;;;;;;20.90;46.36;95427.78;10232940;28;2032;-63
2023/05/11 01:15:13;;;;;;;;;;;;;;;20.90;46.56;95422.50;10231302;28;1972;-63
2023/05/11 01:20:17;;;;;;;;;;;;;;;20.89;46.46;95422.78;10234821;28;1983;-63
2023/05/11 01:25:36;;;;;;;;;;;;;;;20.88;46.42;95424.63;10237884;28;1945;-62
2023/05/11 01:30:36;;;;;;;;;;;;;;;20.88;46.40;95418.56;10240252;28;1960;-63
2023/05/11 01:35:38;;;;;;;;;;;;;;;20.87;46.62;95420.44;10229459;28;2055;-63
2023/05/11 01:40:38;;;;;;;;;;;;;;;20.87;46.47;95417.03;10231500;28;1933;-63
2023/05/11 01:45:40;;;;;;;;;;;;;;;20.86;46.37;95413.59;10226770;28;1916;-64
2023/05/11 01:50:40;;;;;;;;;;;;;;;20.85;46.41;95412.03;10235956;28;1863;-64
2023/05/11 01:55:40;;;;;;;;;;;;;;;20.85;46.16;95414.69;10234869;28;4444;-64
2023/05/11 02:00:41;;;;;;;;;;;;;;;20.85;46.13;95413.88;10236667;28;2001;-64
2023/05/11 02:05:41;;;;;;;;;;;;;;;20.85;45.69;95414.69;10231915;28;1945;-65
2023/05/11 02:10:42;;;;;;;;;;;;;;;20.84;45.99;95418.38;10237517;28;1926;-64
2023/05/11 02:15:42;;;;;;;;;;;;;;;20.84;45.94;95409.66;10236530;28;1963;-65
2023/05/11 02:20:43;;;;;;;;;;;;;;;20.82;46.05;95409.97;10235595;28;1905;-64
2023/05/11 02:25:43;;;;;;;;;;;;;;;20.82;45.74;95404.69;10232418;28;2107;-65
2023/05/11 02:30:44;;;;;;;;;;;;;;;20.82;45.69;95401.25;10244274;28;1962;-64
2023/05/11 02:35:45;;;;;;;;;;;;;;;20.81;45.97;95408.38;10233729;28;2008;-64
2023/05/11 02:40:45;;;;;;;;;;;;;;;20.82;45.63;95401.25;10229608;28;2035;-64
2023/05/11 02:45:46;;;;;;;;;;;;;;;20.80;45.35;95396.28;10233315;28;1948;-64
2023/05/11 02:50:46;;;;;;;;;;;;;;;20.80;45.64;95398.13;10230181;28;2054;-64
2023/05/11 02:55:46;;;;;;;;;;;;;;;20.79;45.63;95394.69;10234103;29;4433;-64
2023/05/11 03:00:46;;;;;;;;;;;;;;;20.79;45.54;95399.97;10237738;28;1976;-64
2023/05/11 03:05:47;;;;;;;;;;;;;;;20.78;45.52;95398.41;10238894;28;1951;-64
2023/05/11 03:10:47;;;;;;;;;;;;;;;20.77;45.59;95396.84;10239272;28;1947;-64
2023/05/11 03:15:47;;;;;;;;;;;;;;;20.78;45.49;95401.06;10243515;28;1917;-64
2023/05/11 03:20:47;;;;;;;;;;;;;;;20.77;45.06;95390.81;10243471;29;1941;-64
2023/05/11 03:25:48;;;;;;;;;;;;;;;20.77;45.37;95394.19;10243620;28;1936;-64
2023/05/11 03:30:48;;;;;;;;;;;;;;;20.75;45.49;95388.44;10241314;28;1923;-64
2023/05/11 03:35:48;;;;;;;;;;;;;;;20.74;45.37;95386.09;10234825;28;2031;-64
2023/05/11 03:40:49;;;;;;;;;;;;;;;20.74;45.17;95381.63;10236798;28;1984;-64
2023/05/11 03:45:50;;;;;;;;;;;;;;;20.74;45.02;95375.56;10239136;29;1987;-64
2023/05/11 03:50:50;;;;;;;;;;;;;;;20.73;45.08;95374.75;10244122;28;1663;-64
2023/05/11 03:55:51;;;;;;;;;;;;;;;20.73;44.95;95374.75;10238472;28;4623;-64
2023/05/11 04:00:51;;;;;;;;;;;;;;;20.73;44.91;95374.00;10241865;28;1956;-64
2023/05/11 04:05:52;;;;;;;;;;;;;;;20.72;44.94;95364.53;10233810;28;1991;-64
2023/05/11 04:10:52;;;;;;;;;;;;;;;20.72;44.52;95369.78;10238839;28;1966;-64
2023/05/11 04:15:52;;;;;;;;;;;;;;;20.71;44.76;95371.63;10235195;28;1984;-64
2023/05/11 04:20:53;;;;;;;;;;;;;;;20.71;44.60;95365.59;10233927;28;2201;-64
2023/05/11 04:25:54;;;;;;;;;;;;;;;20.70;44.53;95367.44;10241755;28;1977;-63
2023/05/11 04:30:55;;;;;;;;;;;;;;;20.69;44.67;95371.13;10235130;28;2094;-64
2023/05/11 04:35:57;;;;;;;;;;;;;;;20.69;44.53;95373.75;10245426;28;1969;-63
2023/05/11 04:41:01;;;;;;;;;;;;;;;20.68;44.86;95377.47;10234257;28;2059;-64
2023/05/11 04:46:02;;;;;;;;;;;;;;;20.69;44.66;95375.63;10237808;29;2062;-64
2023/05/11 04:51:02;;;;;;;;;;;;;;;20.68;44.35;95376.69;10238188;28;1937;-64
2023/05/11 04:56:03;;;;;;;;;;;;;;;20.68;44.77;95380.13;10232959;28;4503;-63
2023/05/11 05:01:03;;;;;;;;;;;;;;;20.67;44.32;95383.03;10241992;28;2186;-64
2023/05/11 05:06:03;;;;;;;;;;;;;;;20.65;44.50;95378.03;10243162;28;2202;-63
2023/05/11 05:11:03;;;;;;;;;;;;;;;20.66;44.32;95381.47;10234238;28;2001;-63
2023/05/11 05:16:04;;;;;;;;;;;;;;;20.65;44.57;95388.56;10240017;28;1923;-64
2023/05/11 05:21:04;;;;;;;;;;;;;;;20.65;44.33;95387.81;10240850;28;1978;-63
2023/05/11 05:26:04;;;;;;;;;;;;;;;20.64;44.11;95384.38;10235238;28;2218;-63
2023/05/11 05:31:05;;;;;;;;;;;;;;;20.64;44.06;95389.66;10235094;28;2019;-62
2023/05/11 05:36:05;;;;;;;;;;;;;;;20.64;44.34;95391.50;10230985;28;2056;-64
2023/05/11 05:41:05;;;;;;;;;;;;;;;20.59;44.29;95394.97;10230554;28;1909;-64
2023/05/11 05:46:06;;;;;;;;;;;;;;;20.59;44.51;95389.69;10235605;28;1961;-64
2023/05/11 05:51:06;;;;;;;;;;;;;;;20.61;44.29;95390.19;10237616;28;2018;-65
2023/05/11 05:56:06;;;;;;;;;;;;;;;20.60;44.27;95396.53;10235124;28;4426;-65
2023/05/11 06:01:06;;;;;;;;;;;;;;;20.61;44.21;95395.47;10239095;28;2075;-65
2023/05/11 06:06:07;;;;;;;;;;;;;;;20.62;44.29;95398.88;10237830;28;2276;-65
2023/05/11 06:11:07;;;;;;;;;;;;;;;20.62;44.53;95402.31;10237197;28;1949;-65
2023/05/11 06:16:07;;;;;;;;;;;;;;;20.62;44.62;95402.31;10236471;28;1976;-66
2023/05/11 06:21:08;;;;;;;;;;;;;;;20.62;44.39;95404.16;10240527;29;2404;-65
2023/05/11 06:26:08;;;;;;;;;;;;;;;20.62;44.60;95401.53;10235743;28;1972;-65
2023/05/11 06:31:08;;;;;;;;;;;;;;;20.61;44.36;95403.38;10240039;28;2029;-65
2023/05/11 06:36:09;;;;;;;;;;;;;;;20.61;44.43;95403.38;10237644;28;2043;-66
2023/05/11 06:41:10;;;;;;;;;;;;;;;20.61;44.20;95411.25;10234833;28;1961;-65
2023/05/11 06:46:15;;;;;;;;;;;;;;;20.61;44.54;95402.59;10237997;28;1913;-65
2023/05/11 06:51:16;;;;;;;;;;;;;;;20.60;44.49;95404.44;10244588;28;2016;-66
2023/05/11 06:56:16;;;;;;;;;;;;;;;20.60;44.44;95401.03;10235213;28;4389;-66
2023/05/11 07:01:16;;;;;;;;;;;;;;;20.58;44.55;95398.69;10244488;28;1918;-66
2023/05/11 07:06:16;;;;;;;;;;;;;;;20.60;44.39;95401.81;10244137;28;1932;-65
2023/05/11 07:11:17;;;;;;;;;;;;;;;20.59;44.39;95402.06;10248983;28;2045;-65
2023/05/11 07:16:18;;;;;;;;;;;;;;;20.57;44.37;95399.72;10241240;28;1980;-66
2023/05/11 07:21:18;;;;;;;;;;;;;;;20.57;44.38;95407.63;10243840;29;1965;-65
2023/05/11 07:26:18;;;;;;;;;;;;;;;20.57;44.46;95402.34;10242738;28;2092;-65
2023/05/11 07:31:18;;;;;;;;;;;;;;;20.56;44.49;95403.44;10247905;28;2147;-65
2023/05/11 07:36:19;;;;;;;;;;;;;;;20.56;44.57;95400.00;10249949;28;2030;-65
2023/05/11 07:41:20;;;;;;;;;;;;;;;20.55;44.60;95407.13;10247515;28;1895;-64
2023/05/11 07:46:21;;;;;;;;;;;;;;;20.55;44.77;95409.75;10241960;28;1827;-65
2023/05/11 07:51:21;;;;;;;;;;;;;;;20.55;44.84;95409.75;10246557;28;1910;-64
2023/05/11 07:56:21;;;;;;;;;;;;;;;20.55;44.46;95419.50;10240727;28;4460;-64
2023/05/11 08:01:22;;;;;;;;;;;;;;;20.54;44.21;95408.22;10244185;28;1927;-65
2023/05/11 08:06:22;;;;;;;;;;;;;;;20.54;44.53;95416.09;10236716;28;2264;-64
2023/05/11 08:11:23;;;;;;;;;;;;;;;20.53;44.34;95411.88;10240470;28;1879;-65
2023/05/11 08:16:23;;;;;;;;;;;;;;;20.52;44.07;95402.44;10244298;28;1976;-66
2023/05/11 08:21:23;;;;;;;;;;;;;;;20.52;44.47;95409.53;10235932;28;1894;-66
2023/05/11 08:26:24;;;;;;;;;;;;;;;20.51;44.51;95395.59;10238179;28;2092;-65
2023/05/11 08:31:24;;;;;;;;;;;;;;;20.51;44.62;95398.22;10240044;29;1785;-66
2023/05/11 08:36:24;;;;;;;;;;;;;;;20.50;44.51;95394.03;10245867;28;1923;-65
2023/05/11 08:41:24;;;;;;;;;;;;;;;20.50;44.44;95394.03;10240910;28;1971;-66
2023/05/11 08:46:26;;;;;;;;;;;;;;;20.51;44.33;95394.78;10241565;28;1907;-64
2023/05/11 08:51:27;;;;;;;;;;;;;;;20.49;44.28;95395.09;10244001;28;1887;-64
2023/05/11 08:56:27;;;;;;;;;;;;;;;20.49;44.37;95402.97;10238929;28;4423;-64
2023/05/11 09:01:28;;;;;;;;;;;;;;;20.50;44.51;95406.41;10240045;28;1889;-64
2023/05/11 09:06:28;;;;;;;;;;;;;;;20.49;44.31;95402.97;10243499;28;1844;-66
2023/05/11 09:11:28;;;;;;;;;;;;;;;20.49;44.50;95405.63;10238843;28;1847;-66
2023/05/11 09:16:29;;;;;;;;;;;;;;;20.49;44.44;95405.63;10232383;28;2060;-66
2023/05/11 09:21:30;;;;;;;;;;;;;;;20.48;44.13;95401.44;10241015;28;1820;-65
2023/05/11 09:26:31;;;;;;;;;;;;;;;20.47;44.36;95397.22;10237223;28;2144;-66
2023/05/11 09:31:40;;;;;;;;;;;;;;;20.47;44.35;95399.84;10239699;28;1862;-66
2023/05/11 09:36:41;;;;;;;;;;;;;;;20.47;44.38;95393.78;10235711;28;2020;-65
2023/05/11 09:41:41;;;;;;;;;;;;;;;20.47;44.40;95396.41;10237690;28;1835;-66
2023/05/11 09:46:42;;;;;;;;;;;;;;;20.46;44.26;95395.66;10233399;28;1956;-66
2023/05/11 09:51:42;;;;;;;;;;;;;;;20.46;44.16;95386.97;10236016;28;1983;-66
2023/05/11 09:56:46;;;;;;;;;;;;;;;20.46;44.31;95384.34;10237815;28;4425;-66
2023/05/11 10:01:46;;;;;;;;;;;;;;;20.43;44.07;95380.41;10239192;28;1863;-66
2023/05/11 10:06:47;;;;;;;;;;;;;;;20.43;44.32;95385.69;10240968;28;1879;-66
2023/05/11 10:11:48;;;;;;;;;;;;;;;20.43;44.28;95385.69;10233338;28;1875;-66
2023/05/11 10:16:48;;;;;;;;;;;;;;;20.43;44.24;95390.94;10242788;28;1952;-66
2023/05/11 10:21:48;;;;;;;;;;;;;;;20.44;44.04;95389.09;10242343;28;2032;-66
2023/05/11 10:26:48;;;;;;;;;;;;;;;20.42;44.17;95386.75;10246993;28;1863;-66
2023/05/11 10:31:50;;;;;;;;;;;;;;;20.42;44.22;95378.06;10243242;28;1871;-66
2023/05/11 10:36:51;;;;;;;;;;;;;;;20.42;44.39;95380.69;10239716;28;1919;-66
2023/05/11 10:42:10;;;;;;;;;;;;;;;20.41;44.26;95379.91;10242021;29;2028;-66
2023/05/11 10:47:16;;;;;;;;;;;;;;;20.40;44.20;95383.63;10242439;28;1874;-66
2023/05/11 10:52:22;;;;;;;;;;;;;;;20.40;44.23;95391.53;10250521;28;1488;-66
2023/05/11 10:57:32;;;;;;;;;;;;;;;20.39;44.30;95379.41;10250761;28;4504;-66
2023/05/11 11:02:32;;;;;;;;;;;;;;;20.38;43.94;95380.47;10243519;28;1798;-66
2023/05/11 11:07:52;;;;;;;;;;;;;;;20.39;44.05;95379.41;10239039;28;2056;-65
2023/05/11 11:13:00;;;;;;;;;;;;;;;20.39;44.34;95383.88;10242166;28;1967;-66
2023/05/11 11:18:20;;;;;;;;;;;;;;;20.38;44.17;95372.56;10245326;28;2123;-65
2023/05/11 11:23:38;;;;;;;;;;;;;;;20.38;44.05;95367.28;10237772;28;1918;-65
2023/05/11 11:28:53;;;;;;;;;;;;;;;20.37;44.40;95370.22;10241220;28;1880;-65
2023/05/11 11:33:57;;;;;;;;;;;;;;;20.37;44.31;95372.84;10239075;29;1898;-65
2023/05/11 11:38:58;;;;;;;;;;;;;;;20.37;44.42;95372.84;10234618;28;2009;-65
2023/05/11 11:43:59;;;;;;;;;;;;;;;20.37;44.13;95375.47;10238819;28;1860;-65
2023/05/11 11:49:06;;;;;;;;;;;;;;;20.37;44.32;95381.53;10239452;28;1954;-65
2023/05/11 11:54:06;;;;;;;;;;;;;;;20.37;44.10;95376.28;10238928;28;1891;-65
2023/05/11 11:59:10;;;;;;;;;;;;;;;20.36;44.18;95372.06;10239829;28;4536;-65
2023/05/11 12:04:19;;;;;;;;;;;;;;;20.35;44.04;95373.13;10239251;28;1975;-65
2023/05/11 12:09:19;;;;;;;;;;;;;;;20.35;44.23;95365.25;10237988;28;1867;-65
2023/05/11 12:14:20;;;;;;;;;;;;;;;20.34;44.31;95368.91;10237909;28;1942;-65
2023/05/11 12:19:22;;;;;;;;;;;;;;;20.35;44.19;95364.44;10242987;28;1943;-65
2023/05/11 12:24:22;;;;;;;;;;;;;;;20.33;44.03;95367.38;10243463;28;2009;-66
2023/05/11 12:29:23;;;;;;;;;;;;;;;20.34;44.29;95365.53;10241470;28;1951;-65
2023/05/11 12:34:23;;;;;;;;;;;;;;;20.34;44.12;95358.41;10239813;28;1873;-65
2023/05/11 12:39:24;;;;;;;;;;;;;;;20.33;44.16;95356.84;10238669;28;1900;-65
2023/05/11 12:44:25;;;;;;;;;;;;;;;20.33;44.24;95353.41;10235549;28;1871;-65
2023/05/11 12:49:26;;;;;;;;;;;;;;;20.32;44.13;95347.38;10243704;28;1895;-65
2023/05/11 12:54:27;;;;;;;;;;;;;;;20.33;44.21;95348.16;10227838;28;1840;-65
2023/05/11 12:59:28;;;;;;;;;;;;;;;20.32;44.05;95342.09;10235197;28;4441;-65
2023/05/11 13:04:29;;;;;;;;;;;;;;;20.31;44.02;95343.19;10234714;28;1894;-65
2023/05/11 13:09:29;;;;;;;;;;;;;;;20.31;44.04;95339.75;10234033;28;2154;-65
2023/05/11 13:14:29;;;;;;;;;;;;;;;20.30;44.40;95338.97;10238658;28;1879;-65
2023/05/11 13:19:30;;;;;;;;;;;;;;;20.29;44.29;95334.78;10232929;28;2036;-65
2023/05/11 13:24:31;;;;;;;;;;;;;;;20.29;44.05;95334.78;10232132;29;1882;-66
2023/05/11 13:29:31;;;;;;;;;;;;;;;20.31;44.21;95337.13;10235606;28;2203;-65
2023/05/11 13:34:31;;;;;;;;;;;;;;;20.29;44.20;95329.50;10239722;28;1935;-65
2023/05/11 13:39:32;;;;;;;;;;;;;;;20.30;44.05;95327.69;10235013;28;1910;-64
2023/05/11 13:44:32;;;;;;;;;;;;;;;20.30;44.65;95328.44;10233694;29;1844;-66
2023/05/11 13:49:32;;;;;;;;;;;;;;;20.34;44.64;95329.44;10238297;28;2060;-65
2023/05/11 13:54:32;;;;;;;;;;;;;;;20.37;44.57;95328.09;10234028;28;2887;-65
2023/05/11 13:59:33;;;;;;;;;;;;;;;20.39;44.64;95318.06;10239087;28;1957;-66
2023/05/11 14:04:33;;;;;;;;;;;;;;;20.40;44.79;95323.06;10238040;28;2143;-65
2023/05/11 14:09:35;;;;;;;;;;;;;;;20.45;44.74;95323.00;10232856;28;1946;-66
2023/05/11 14:14:36;;;;;;;;;;;;;;;20.47;44.72;95317.44;10238126;29;1905;-66
2023/05/11 14:19:36;;;;;;;;;;;;;;;20.52;44.73;95322.66;10240736;28;1907;-66
2023/05/11 14:24:36;;;;;;;;;;;;;;;20.54;44.71;95316.03;10242717;28;1827;-66
2023/05/11 14:29:36;;;;;;;;;;;;;;;20.58;44.42;95318.88;10234048;28;1831;-66
2023/05/11 14:34:37;;;;;;;;;;;;;;;20.61;44.47;95305.94;10234720;28;2124;-66
2023/05/11 14:39:38;;;;;;;;;;;;;;;20.63;44.73;95311.69;10236568;28;1919;-66
2023/05/11 14:44:38;;;;;;;;;;;;;;;20.64;44.32;95315.91;10239576;28;1935;-66
2023/05/11 14:49:39;;;;;;;;;;;;;;;20.67;44.45;95312.69;10229537;29;2122;-66
2023/05/11 14:54:39;;;;;;;;;;;;;;;20.69;44.56;95315.06;10235499;28;1863;-66
2023/05/11 14:59:40;;;;;;;;;;;;;;;20.70;44.60;95314.78;10234543;28;4505;-66
2023/05/11 15:04:43;;;;;;;;;;;;;;;20.73;44.29;95316.06;10238566;28;1886;-66
2023/05/11 15:09:43;;;;;;;;;;;;;;;20.74;44.21;95322.88;10241067;28;1831;-66
2023/05/11 15:14:44;;;;;;;;;;;;;;;20.74;44.15;95318.41;10244739;29;1879;-66
2023/05/11 15:19:44;;;;;;;;;;;;;;;20.78;44.22;95321.25;10250832;28;2029;-65
2023/05/11 15:24:44;;;;;;;;;;;;;;;20.77;44.27;95315.19;10245700;28;1998;-65
2023/05/11 15:29:45;;;;;;;;;;;;;;;20.78;44.06;95337.03;10243021;28;1848;-65
2023/05/11 15:34:45;;;;;;;;;;;;;;;20.77;44.08;95327.59;10247821;28;1887;-66
2023/05/11 15:39:45;;;;;;;;;;;;;;;20.78;44.05;95326.50;10239655;28;1973;-65
2023/05/11 15:44:46;;;;;;;;;;;;;;;20.78;44.22;95332.56;10242980;28;1888;-66
2023/05/11 15:49:46;;;;;;;;;;;;;;;20.78;44.07;95335.19;10244480;28;1867;-66
2023/05/11 15:54:46;;;;;;;;;;;;;;;20.77;44.17;95333.63;10246305;28;1954;-66
2023/05/11 15:59:46;;;;;;;;;;;;;;;20.77;43.93;95333.63;10240673;28;4377;-66
2023/05/11 16:04:47;;;;;;;;;;;;;;;20.77;44.08;95336.25;10247304;28;1963;-65
2023/05/11 16:09:47;;;;;;;;;;;;;;;20.77;44.06;95330.22;10239425;28;1879;-65
2023/05/11 16:14:48;;;;;;;;;;;;;;;20.75;43.91;95335.00;10241595;28;1905;-65
2023/05/11 16:19:48;;;;;;;;;;;;;;;20.75;44.07;95333.13;10249115;28;1910;-65
2023/05/11 16:24:48;;;;;;;;;;;;;;;20.73;44.10;95334.50;10239981;28;1738;-65
2023/05/11 16:29:50;;;;;;;;;;;;;;;20.74;44.19;95336.03;10237895;28;1950;-65
2023/05/11 16:34:50;;;;;;;;;;;;;;;20.75;44.19;95327.84;10240326;28;1882;-65
2023/05/11 16:39:50;;;;;;;;;;;;;;;20.77;44.35;95330.22;10236295;28;1907;-65
2023/05/11 16:44:50;;;;;;;;;;;;;;;20.75;44.48;95324.47;10241855;28;1835;-66
2023/05/11 16:49:51;;;;;;;;;;;;;;;20.75;44.57;95325.22;10242731;28;1895;-66
2023/05/11 16:54:51;;;;;;;;;;;;;;;20.76;44.40;95318.91;10241021;28;2060;-66
2023/05/11 16:59:51;;;;;;;;;;;;;;;20.74;44.56;95320.25;10241837;28;4461;-66
2023/05/11 17:04:52;;;;;;;;;;;;;;;20.72;44.47;95320.53;10236810;28;1779;-66
2023/05/11 17:09:55;;;;;;;;;;;;;;;20.71;44.54;95318.19;10238653;28;1887;-65
2023/05/11 17:14:56;;;;;;;;;;;;;;;20.72;44.92;95315.28;10242370;28;1603;-65
2023/05/11 17:19:56;;;;;;;;;;;;;;;20.70;44.61;95327.94;10235053;28;1976;-66
2023/05/11 17:24:56;;;;;;;;;;;;;;;20.70;44.95;95322.66;10240044;28;1910;-66
2023/05/11 17:29:57;;;;;;;;;;;;;;;20.71;44.59;95312.94;10241549;28;1927;-65
2023/05/11 17:34:57;;;;;;;;;;;;;;;20.70;44.46;95314.78;10241568;28;1936;-64
2023/05/11 17:39:58;;;;;;;;;;;;;;;20.69;44.31;95305.28;10242200;28;1997;-64
2023/05/11 17:44:58;;;;;;;;;;;;;;;20.66;44.74;95305.88;10242871;28;1829;-65
2023/05/11 17:49:58;;;;;;;;;;;;;;;20.68;44.66;95314.28;10244464;28;2056;-64
2023/05/11 17:54:59;;;;;;;;;;;;;;;20.67;44.78;95315.31;10234554;28;2051;-64
2023/05/11 17:59:59;;;;;;;;;;;;;;;20.68;44.95;95316.91;10233295;28;4785;-69
2023/05/11 18:04:59;;;;;;;;;;;;;;;20.68;45.00;95316.13;10239877;28;1872;-66
2023/05/11 18:09:59;;;;;;;;;;;;;;;20.69;45.16;95321.09;10232081;28;1971;-67
2023/05/11 18:15:00;;;;;;;;;;;;;;;20.72;45.18;95319.75;10233300;28;1926;-63
2023/05/11 18:20:00;;;;;;;;;;;;;;;20.72;44.94;95319.75;10236694;28;1953;-65
2023/05/11 18:25:01;;;;;;;;;;;;;;;20.71;45.21;95321.59;10241399;28;1636;-64
2023/05/11 18:30:01;;;;;;;;;;;;;;;20.73;45.32;95316.06;10241525;28;1583;-65
2023/05/11 18:35:02;;;;;;;;;;;;;;;20.74;44.72;95323.66;10243148;28;1492;-63
2023/05/11 18:40:05;;;;;;;;;;;;;;;20.73;44.64;95316.81;10244150;28;1914;-62
2023/05/11 18:45:06;;;;;;;;;;;;;;;20.73;44.75;95324.72;10246441;28;2086;-63
2023/05/11 18:50:06;;;;;;;;;;;;;;;20.73;44.77;95319.44;10247930;28;1465;-63
2023/05/11 18:55:07;;;;;;;;;;;;;;;20.74;44.16;95322.88;10249704;28;1489;-63
2023/05/11 19:00:09;;;;;;;;;;;;;;;20.73;44.35;95322.09;10249597;28;4425;-63
2023/05/11 19:05:09;;;;;;;;;;;;;;;20.73;44.05;95322.09;10245151;28;1633;-63
2023/05/11 19:10:09;;;;;;;;;;;;;;;20.72;44.06;95336.34;10248134;28;1473;-64
2023/05/11 19:15:10;;;;;;;;;;;;;;;20.72;44.15;95331.06;10246637;28;1477;-64
2023/05/11 19:20:10;;;;;;;;;;;;;;;20.72;44.28;95340.81;10243737;28;1980;-63
2023/05/11 19:25:10;;;;;;;;;;;;;;;20.71;44.26;95328.72;10247251;28;1522;-64
2023/05/11 19:30:11;;;;;;;;;;;;;;;20.70;44.00;95333.22;10247307;28;1541;-64
2023/05/11 19:35:12;;;;;;;;;;;;;;;20.69;44.19;95334.25;10248409;28;1473;-63
2023/05/11 19:40:15;;;;;;;;;;;;;;;20.70;44.41;95337.69;10249823;28;1916;-64
2023/05/11 19:45:16;;;;;;;;;;;;;;;20.68;44.19;95345.88;10245767;28;2117;-63
2023/05/11 19:50:17;;;;;;;;;;;;;;;20.69;44.25;95344.78;10245244;28;1893;-63
2023/05/11 19:55:17;;;;;;;;;;;;;;;20.70;44.42;95346.38;10247443;28;1694;-63
2023/05/11 20:00:19;;;;;;;;;;;;;;;20.70;44.23;95338.47;10247449;28;4790;-64
2023/05/11 20:05:19;;;;;;;;;;;;;;;20.70;44.50;95345.59;10245584;28;1497;-64
2023/05/11 20:10:19;;;;;;;;;;;;;;;20.70;44.33;95338.47;10226835;28;1530;-63
2023/05/11 20:15:19;;;;;;;;;;;;;;;20.69;44.63;95333.50;10246079;28;1425;-63
2023/05/11 20:20:20;;;;;;;;;;;;;;;20.68;44.16;95340.59;10248535;28;1907;-64
2023/05/11 20:25:20;;;;;;;;;;;;;;;20.69;44.73;95341.41;10247435;28;1450;-63
2023/05/11 20:30:20;;;;;;;;;;;;;;;20.68;44.42;95332.72;10249979;28;1555;-64
2023/05/11 20:35:21;;;;;;;;;;;;;;;20.67;44.55;95333.00;10244519;28;1630;-63
2023/05/11 20:40:21;;;;;;;;;;;;;;;20.67;44.60;95330.38;10243394;28;2190;-64
2023/05/11 20:45:22;;;;;;;;;;;;;;;20.66;44.51;95329.56;10245170;28;1416;-64
2023/05/11 20:50:23;;;;;;;;;;;;;;;20.65;44.63;95332.50;10243168;28;1521;-64
2023/05/11 20:55:23;;;;;;;;;;;;;;;20.65;44.21;95325.34;10241541;28;1490;-64
2023/05/11 21:00:24;;;;;;;;;;;;;;;20.64;44.08;95320.38;10242908;28;1906;-64
2023/05/11 21:05:24;;;;;;;;;;;;;;;20.63;44.59;95322.22;10236888;28;1943;-65
2023/05/11 21:10:25;;;;;;;;;;;;;;;20.64;44.41;95320.38;10238647;28;1873;-65
2023/05/11 21:15:25;;;;;;;;;;;;;;;20.63;44.46;95313.56;10238033;28;1863;-63
2023/05/11 21:20:25;;;;;;;;;;;;;;;20.62;44.84;95315.41;10240982;28;2217;-62
2023/05/11 21:25:25;;;;;;;;;;;;;;;20.61;44.70;95313.81;10238312;28;1804;-64
2023/05/11 21:30:26;;;;;;;;;;;;;;;20.61;44.73;95318.34;10231408;28;2001;-64
2023/05/11 21:35:27;;;;;;;;;;;;;;;20.59;44.65;95326.50;10240591;28;2123;-64
2023/05/11 21:40:27;;;;;;;;;;;;;;;20.58;44.58;95319.69;10238551;28;1922;-65
2023/05/11 21:45:28;;;;;;;;;;;;;;;20.55;44.60;95317.59;10231711;28;1899;-65
2023/05/11 21:50:28;;;;;;;;;;;;;;;20.54;44.67;95326.56;10234620;28;1883;-65
2023/05/11 21:55:28;;;;;;;;;;;;;;;20.53;44.64;95321.56;10238676;28;4559;-65
2023/05/11 22:00:31;;;;;;;;;;;;;;;20.53;44.61;95327.63;10236671;28;1973;-65
2023/05/11 22:05:31;;;;;;;;;;;;;;;20.51;44.84;95329.75;10229975;29;1872;-65
2023/05/11 22:10:32;;;;;;;;;;;;;;;20.49;44.64;95328.47;10234870;28;1824;-65
2023/05/11 22:15:32;;;;;;;;;;;;;;;20.48;44.78;95327.72;10237644;28;1981;-65
2023/05/11 22:20:32;;;;;;;;;;;;;;;20.47;44.54;95331.41;10237062;29;1815;-65
2023/05/11 22:25:32;;;;;;;;;;;;;;;20.46;44.90;95337.75;10238265;28;2060;-65
2023/05/11 22:30:33;;;;;;;;;;;;;;;20.45;44.99;95330.91;10237299;28;2115;-65
2023/05/11 22:35:33;;;;;;;;;;;;;;;20.43;44.84;95333.03;10241243;28;1902;-65
2023/05/11 22:40:33;;;;;;;;;;;;;;;20.42;44.92;95338.56;10231885;28;2001;-65
2023/05/11 22:45:33;;;;;;;;;;;;;;;20.42;44.61;95336.75;10237594;28;1906;-65
2023/05/11 22:50:34;;;;;;;;;;;;;;;20.40;44.65;95338.88;10233836;28;1855;-65
2023/05/11 22:55:34;;;;;;;;;;;;;;;20.39;44.79;95339.91;10238660;28;4382;-65
2023/05/11 23:00:35;;;;;;;;;;;;;;;20.38;44.63;95334.94;10235104;28;1921;-65
2023/05/11 23:05:36;;;;;;;;;;;;;;;20.38;44.37;95334.94;10237087;28;1903;-65
2023/05/11 23:10:36;;;;;;;;;;;;;;;20.38;44.61;95329.69;10234851;28;1902;-65
2023/05/11 23:15:36;;;;;;;;;;;;;;;20.35;44.68;95333.66;10230183;28;1902;-65
2023/05/11 23:20:36;;;;;;;;;;;;;;;20.37;44.47;95333.38;10234239;28;1907;-65
2023/05/11 23:25:37;;;;;;;;;;;;;;;20.35;44.87;95325.75;10234095;28;2011;-65
2023/05/11 23:30:37;;;;;;;;;;;;;;;20.34;44.91;95323.41;10243449;28;1966;-65
2023/05/11 23:35:37;;;;;;;;;;;;;;;20.34;44.47;95328.69;10243604;29;1950;-65
2023/05/11 23:40:37;;;;;;;;;;;;;;;20.33;44.74;95317.34;10242802;28;1880;-65
2023/05/11 23:45:38;;;;;;;;;;;;;;;20.32;44.47;95321.03;10243587;28;2245;-65
2023/05/11 23:50:39;;;;;;;;;;;;;;;20.32;44.62;95320.28;10240613;28;1832;-65
2023/05/11 23:55:40;;;;;;;;;;;;;;;20.31;44.41;95313.44;10239171;28;4425;-65
